Weatherford, OK (73096)

1:16 AM CST on February 23, 2017 (GMT -0600)
Weatherford | | Change Station
Active Advisory: Fire Weather Warning

Elev 1604 ft 35.54 °N, 98.67 °W | Updated 21 minutes ago

Clear
Clear
61 °F
Feels Like 61 °F
N
5
Wind Variable Wind from SSE

Today
High -- | Low -- °F
--% Chance of Precip.
Yesterday
High -- | Low -- °F
Precip. -- in
Pressure 29.63 in
Visibility 10.0 miles
Clouds Clear
Dew Point 43 °F
Humidity 52%
Rainfall 0.00 in
Snow Depth Not available.
7:11 AM 6:24 PM
Waning Crescent, 12% visible
METAR KOJA 230655Z AUTO 16004KT 10SM CLR 16/06 A2963 RMK AO2
Pressure 29.63 in
Visibility 10.0 miles
Clouds Clear
Dew Point 43 °F
Humidity 52%
Rainfall 0.00 in
Snow Depth Not available.
7:11 AM 6:24 PM
Waning Crescent, 12% visible
METAR KOJA 230655Z AUTO 16004KT 10SM CLR 16/06 A2963 RMK AO2

Get Your Daily Forecast Email!

Thanks for signing up!

Be on the lookout for a verification email in your inbox.

You'll start receiving the daily forecast at 8 AM.

×

10-Day Weather Forecast

Almanac

Astronomy

Feb. 23, 2017 Rise Set
Actual Time
Civil Twilight
Nautical Twilight
Astronomical Twilight
Moon
Length of Visible Light
Length of Day
Tomorrow will be .
, % of the Moon is Illuminated

Today's Extremes

State Highs State Lows

Community

WunderPhotos

Upload Photos

1,962,540 photos uploaded!

WunderBlog® & News

Nearby

Air Quality

  Air Quality AQ Index Pollutant
Not available.

Snow Depth

Station Depth Elevation

Earthquake Activity

City Distance Mag. Time & Date
Minimum magnitude displayed is 2.5.

Coastal Water Temperatures

Place Temperature

Stations

Nearby Weather Stations

Station Location Temp. Windchill Dew Point Humidity Wind Precip. Elev Updated Type
                   

Watches & Warnings

Fire Weather Warning
Issued: 9:42 PM CST Feb. 22, 2017 – National Weather Service

... Red flag warning remains in effect from 10 am to 9 PM CST
Thursday for windy conditions... warm temperatures and low
relative humidity for western Oklahoma and far western North
Texas...

* timing... late Thursday morning through Thursday evening.

* Wind... west and southwest, 20 to 25 mph, with gusts to 40 mph.

* Humidity... 8 to 20 percent.

* Temperature... low 80s to 90.

* Impacts... any fires that develop will likely spread rapidly.
Outdoor burning is strongly discouraged.

Precautionary/preparedness actions...

A red flag warning means that critical fire weather conditions
are either occurring now, or will shortly. A combination of
strong winds, low relative humidity, and warm temperatures can
contribute to extreme fire behavior.